createdAt,value
2023-01-12T00:01:25.018Z,26.98
2023-01-12T00:03:51.857Z,25.77
2023-01-12T00:06:19.830Z,20.90
2023-01-12T00:08:46.761Z,24.27
2023-01-12T00:11:13.379Z,25.70
2023-01-12T00:13:39.741Z,24.05
2023-01-12T00:16:26.167Z,24.77
2023-01-12T00:18:52.864Z,31.13
2023-01-12T00:21:19.231Z,30.88
2023-01-12T00:23:45.645Z,35.65
2023-01-12T00:26:12.144Z,29.55
2023-01-12T00:28:41.642Z,33.90
2023-01-12T00:31:08.925Z,39.22
2023-01-12T00:33:36.074Z,38.85
2023-01-12T00:36:03.634Z,41.50
2023-01-12T00:38:30.321Z,35.35
2023-01-12T00:40:56.705Z,42.67
2023-01-12T00:43:41.864Z,41.63
2023-01-12T00:46:09.733Z,37.35
2023-01-12T00:48:36.183Z,29.65
2023-01-12T00:51:03.325Z,32.88
2023-01-12T00:53:30.587Z,32.17
2023-01-12T00:56:03.256Z,45.58
2023-01-12T00:58:30.058Z,41.53
2023-01-12T01:01:04.165Z,34.15
2023-01-12T01:03:30.553Z,46.38
2023-01-12T01:06:04.075Z,35.05
2023-01-12T01:08:30.945Z,46.30
2023-01-12T01:11:01.148Z,43.60
2023-01-12T01:13:27.464Z,38.05
2023-01-12T01:15:53.861Z,34.90
2023-01-12T01:18:20.780Z,34.25
2023-01-12T01:20:47.441Z,36.13
2023-01-12T01:23:13.809Z,38.38
2023-01-12T01:25:40.182Z,39.90
2023-01-12T01:28:06.532Z,33.65
2023-01-12T01:30:32.897Z,35.97
2023-01-12T01:32:59.218Z,34.58
2023-01-12T01:35:25.591Z,34.83
2023-01-12T01:37:51.947Z,41.15
2023-01-12T01:40:18.276Z,30.23
2023-01-12T01:42:44.771Z,27.67
2023-01-12T01:45:12.594Z,25.27
2023-01-12T01:48:05.383Z,26.25
2023-01-12T01:50:33.914Z,21.25
2023-01-12T01:53:03.826Z,20.45
2023-01-12T01:55:34.013Z,20.40
2023-01-12T01:58:06.380Z,20.40
2023-01-12T02:00:32.740Z,19.80
2023-01-12T02:03:01.580Z,15.98
2023-01-12T02:05:28.809Z,19.33
2023-01-12T02:07:56.754Z,19.17
2023-01-12T02:10:23.189Z,16.58
2023-01-12T02:13:08.594Z,21.63
2023-01-12T02:16:03.443Z,20.70
2023-01-12T02:18:41.475Z,20.40
2023-01-12T02:21:15.126Z,22.73
2023-01-12T02:24:10.990Z,21.13
2023-01-12T02:26:52.632Z,25.57
2023-01-12T02:29:27.982Z,21.17
2023-01-12T02:32:13.162Z,21.83
2023-01-12T02:34:39.685Z,16.50
2023-01-12T02:37:14.221Z,20.75
2023-01-12T02:39:59.922Z,20.23
2023-01-12T02:42:41.811Z,18.80
2023-01-12T02:45:23.216Z,16.65
2023-01-12T02:48:05.005Z,21.45
2023-01-12T02:50:34.691Z,12.93
2023-01-12T02:53:08.613Z,19.85
2023-01-12T02:55:35.197Z,16.42
2023-01-12T02:58:02.988Z,15.93
2023-01-12T03:00:29.524Z,15.63
2023-01-12T03:02:56.013Z,14.27
2023-01-12T03:05:22.373Z,13.00
2023-01-12T03:07:52.070Z,19.60
2023-01-12T03:10:23.340Z,19.20
2023-01-12T03:12:51.491Z,11.07
2023-01-12T03:15:19.163Z,11.77
2023-01-12T03:17:58.197Z,9.30
2023-01-12T03:20:25.847Z,9.88
2023-01-12T03:22:54.614Z,8.52
2023-01-12T03:25:21.575Z,12.57
2023-01-12T03:27:50.688Z,10.25
2023-01-12T03:30:19.964Z,9.52
2023-01-12T03:32:46.458Z,8.68
2023-01-12T03:35:12.912Z,11.02
2023-01-12T03:37:39.378Z,7.97
2023-01-12T03:40:14.679Z,10.32
2023-01-12T03:42:46.736Z,8.73
2023-01-12T03:45:31.004Z,10.60
2023-01-12T03:48:27.016Z,8.65
2023-01-12T03:50:57.329Z,3.97
2023-01-12T03:53:24.361Z,6.85
2023-01-12T03:55:52.887Z,5.32
2023-01-12T03:58:19.421Z,8.68
2023-01-12T04:00:46.095Z,10.52
2023-01-12T04:03:13.504Z,6.03
2023-01-12T04:05:41.819Z,10.63
2023-01-12T04:08:08.640Z,7.82
2023-01-12T04:10:35.027Z,7.72
2023-01-12T04:13:01.356Z,5.43
2023-01-12T04:15:27.714Z,3.75
2023-01-12T04:17:54.260Z,6.93
2023-01-12T04:20:20.667Z,7.45
2023-01-12T04:22:47.293Z,7.90
2023-01-12T04:25:18.161Z,5.32
2023-01-12T04:27:51.863Z,9.68
2023-01-12T04:30:19.038Z,3.97
2023-01-12T04:32:46.354Z,7.18
2023-01-12T04:35:12.965Z,5.93
2023-01-12T04:37:39.756Z,5.47
2023-01-12T04:40:06.791Z,3.78
2023-01-12T04:42:51.682Z,4.82
2023-01-12T04:45:18.164Z,3.63
2023-01-12T04:47:44.481Z,5.05
2023-01-12T04:50:10.885Z,4.60
2023-01-12T04:52:37.618Z,2.90
2023-01-12T04:55:04.768Z,3.65
2023-01-12T04:57:31.614Z,3.95
2023-01-12T04:59:57.919Z,5.70
2023-01-12T05:02:24.284Z,3.17
2023-01-12T05:04:50.694Z,4.15
2023-01-12T05:07:17.073Z,3.63
2023-01-12T05:10:01.979Z,3.05
2023-01-12T05:12:28.307Z,2.22
2023-01-12T05:14:54.698Z,3.50
2023-01-12T05:17:21.161Z,1.92
2023-01-12T05:19:49.597Z,10.18
2023-01-12T05:22:15.916Z,7.10
2023-01-12T05:24:42.246Z,4.97
2023-01-12T05:27:08.705Z,5.22
2023-01-12T05:29:35.047Z,5.15
2023-01-12T05:32:01.349Z,4.93
2023-01-12T05:34:27.669Z,8.88
2023-01-12T05:36:54.051Z,5.20
2023-01-12T05:39:21.754Z,8.43
2023-01-12T05:42:06.783Z,7.88
2023-01-12T05:44:33.152Z,4.93
2023-01-12T05:46:59.522Z,8.50
2023-01-12T05:49:25.998Z,12.32
2023-01-12T05:51:52.368Z,12.27
2023-01-12T05:54:18.729Z,14.38
2023-01-12T05:56:45.209Z,13.93
2023-01-12T05:59:11.812Z,18.95
2023-01-12T06:01:40.399Z,22.70
2023-01-12T06:04:06.853Z,13.95
2023-01-12T06:06:33.213Z,23.58
2023-01-12T06:09:00.144Z,15.35
2023-01-12T06:11:45.559Z,28.20
2023-01-12T06:14:11.994Z,24.37
2023-01-12T06:16:39.128Z,27.42
2023-01-12T06:19:05.704Z,34.35
2023-01-12T06:21:32.990Z,34.83
2023-01-12T06:23:59.388Z,29.80
2023-01-12T06:26:25.822Z,28.75
2023-01-12T06:28:52.151Z,29.75
2023-01-12T06:31:18.667Z,29.38
2023-01-12T06:33:45.671Z,33.83
2023-01-12T06:36:12.557Z,26.58
2023-01-12T06:38:39.041Z,24.45
2023-01-12T06:41:06.876Z,22.88
2023-01-12T06:43:33.300Z,24.92
2023-01-12T06:45:59.809Z,39.80
2023-01-12T06:48:26.511Z,31.58
2023-01-12T06:51:05.735Z,41.92
2023-01-12T06:53:32.121Z,32.50
2023-01-12T06:55:58.497Z,30.08
2023-01-12T06:58:24.848Z,19.13
2023-01-12T07:00:51.281Z,29.65
2023-01-12T07:03:18.225Z,24.08
2023-01-12T07:05:44.931Z,27.83
2023-01-12T07:08:14.488Z,25.40
2023-01-12T07:10:40.881Z,31.05
2023-01-12T07:13:07.265Z,30.30
2023-01-12T07:15:33.704Z,27.33
2023-01-12T07:18:00.041Z,24.58
2023-01-12T07:20:28.503Z,27.95
2023-01-12T07:22:55.451Z,27.67
2023-01-12T07:25:21.856Z,23.75
2023-01-12T07:27:51.944Z,27.63
2023-01-12T07:30:18.883Z,25.33
2023-01-12T07:32:45.271Z,31.35
2023-01-12T07:35:11.680Z,25.40
2023-01-12T07:37:38.000Z,22.67
2023-01-12T07:40:04.588Z,25.95
2023-01-12T07:42:31.268Z,19.40
2023-01-12T07:44:57.654Z,22.80
2023-01-12T07:47:24.097Z,21.63
2023-01-12T07:49:50.497Z,35.67
2023-01-12T07:52:16.869Z,29.80
2023-01-12T07:54:43.251Z,26.50
2023-01-12T07:57:10.853Z,28.67
2023-01-12T07:59:37.357Z,17.65
2023-01-12T08:02:04.135Z,27.15
2023-01-12T08:04:30.526Z,25.92
2023-01-12T08:06:57.275Z,30.45
2023-01-12T08:09:23.636Z,24.90
2023-01-12T08:11:49.967Z,28.55
2023-01-12T08:14:37.230Z,25.73
2023-01-12T08:17:06.111Z,23.75
2023-01-12T08:19:38.900Z,20.80
2023-01-12T08:22:07.956Z,29.45
2023-01-12T08:24:36.593Z,25.00
2023-01-12T08:27:04.180Z,16.20
2023-01-12T08:29:50.698Z,23.15
2023-01-12T08:32:18.799Z,24.70
2023-01-12T08:34:46.920Z,20.17
2023-01-12T08:37:15.252Z,24.40
2023-01-12T08:39:41.984Z,28.33
2023-01-12T08:42:08.845Z,25.70
2023-01-12T08:44:36.063Z,29.10
2023-01-12T08:47:03.602Z,28.58
2023-01-12T08:49:30.857Z,27.08
2023-01-12T08:51:57.233Z,26.25
2023-01-12T08:54:24.003Z,30.52
2023-01-12T08:56:50.420Z,24.55
2023-01-12T08:59:19.024Z,28.92
2023-01-12T09:01:45.858Z,32.38
2023-01-12T09:04:12.226Z,31.15
2023-01-12T09:06:40.228Z,36.83
2023-01-12T09:09:09.799Z,35.35
2023-01-12T09:11:36.720Z,23.75
2023-01-12T09:14:03.256Z,28.88
2023-01-12T09:16:30.338Z,26.27
2023-01-12T09:18:56.809Z,35.10
2023-01-12T09:21:24.232Z,28.55
2023-01-12T09:23:51.125Z,35.08
2023-01-12T09:26:19.146Z,27.55
2023-01-12T09:28:45.709Z,29.20
2023-01-12T09:31:18.740Z,23.60
2023-01-12T09:33:46.252Z,30.98
2023-01-12T09:36:23.258Z,24.20
2023-01-12T09:38:50.110Z,26.88
2023-01-12T09:41:42.416Z,15.40
2023-01-12T09:44:46.510Z,28.67
2023-01-12T09:47:31.796Z,21.48
2023-01-12T09:50:10.155Z,26.67
2023-01-12T09:52:42.781Z,20.65
2023-01-12T09:55:19.431Z,25.92
2023-01-12T09:58:03.965Z,31.08
2023-01-12T10:00:30.379Z,24.83
2023-01-12T10:03:28.389Z,27.95
2023-01-12T10:05:58.015Z,28.58
2023-01-12T10:08:36.089Z,29.25
2023-01-12T10:11:08.511Z,22.98
2023-01-12T10:13:43.943Z,21.88
2023-01-12T10:16:21.312Z,35.55
2023-01-12T10:18:57.838Z,26.50
2023-01-12T10:21:24.773Z,25.95
2023-01-12T10:23:53.653Z,39.95
2023-01-12T10:26:24.429Z,18.23
2023-01-12T10:28:52.839Z,25.30
2023-01-12T10:31:21.090Z,18.60
2023-01-12T10:34:20.088Z,26.02
2023-01-12T10:36:49.260Z,23.27
2023-01-12T10:39:39.331Z,26.83
2023-01-12T10:42:36.525Z,18.48
2023-01-12T10:45:12.066Z,26.75
2023-01-12T10:47:38.543Z,29.10
2023-01-12T10:50:36.432Z,27.42
2023-01-12T10:53:05.788Z,25.27
2023-01-12T10:55:33.753Z,27.80
2023-01-12T10:58:00.399Z,31.48
2023-01-12T11:00:30.521Z,35.97
2023-01-12T11:03:00.118Z,25.15
2023-01-12T11:05:31.860Z,31.40
2023-01-12T11:07:59.434Z,26.00
2023-01-12T11:10:27.648Z,25.13
2023-01-12T11:13:00.938Z,30.25
2023-01-12T11:15:28.766Z,18.13
2023-01-12T11:17:58.297Z,25.83
2023-01-12T11:20:30.739Z,22.77
2023-01-12T11:23:00.315Z,16.77
2023-01-12T11:25:27.956Z,23.13
2023-01-12T11:27:54.485Z,22.25
2023-01-12T11:30:34.536Z,19.58
2023-01-12T11:33:13.162Z,20.50
2023-01-12T11:35:52.979Z,37.78
2023-01-12T11:38:22.378Z,19.45
2023-01-12T11:40:49.302Z,28.05
2023-01-12T11:43:37.653Z,26.30
2023-01-12T11:46:07.568Z,34.42
2023-01-12T11:48:38.770Z,24.23
2023-01-12T11:51:05.163Z,29.42
2023-01-12T11:53:31.532Z,24.27
2023-01-12T11:56:08.146Z,24.27
2023-01-12T11:58:53.769Z,24.48
2023-01-12T12:01:29.208Z,34.50
2023-01-12T12:04:01.539Z,24.40
2023-01-12T12:06:28.070Z,26.90
2023-01-12T12:09:09.760Z,17.05
2023-01-12T12:11:41.722Z,18.98
2023-01-12T12:14:23.580Z,21.45
2023-01-12T12:17:08.596Z,22.02
2023-01-12T12:20:13.714Z,14.60
2023-01-12T12:22:58.445Z,15.48
2023-01-12T12:25:34.050Z,14.80
2023-01-12T12:28:03.469Z,9.68
2023-01-12T12:30:48.461Z,10.50
2023-01-12T12:33:20.730Z,10.32
2023-01-12T12:36:10.185Z,9.85
2023-01-12T12:38:42.714Z,9.20
2023-01-12T12:41:46.621Z,9.68
2023-01-12T12:44:40.867Z,6.35
2023-01-12T12:47:24.226Z,8.70
2023-01-12T12:49:52.439Z,9.00
2023-01-12T12:52:19.379Z,11.07
2023-01-12T12:54:45.774Z,6.32
2023-01-12T12:57:12.247Z,4.45
2023-01-12T12:59:38.624Z,9.00
2023-01-12T13:02:05.200Z,4.88
2023-01-12T13:04:43.821Z,5.22
2023-01-12T13:07:19.066Z,4.07
2023-01-12T13:09:45.763Z,5.15
2023-01-12T13:12:32.025Z,4.97
2023-01-12T13:22:42.954Z,5.10
2023-01-12T13:25:19.446Z,6.30
2023-01-12T13:27:52.418Z,4.30
2023-01-12T13:30:19.246Z,3.60
2023-01-12T13:32:54.644Z,5.18
2023-01-12T13:35:26.071Z,3.97
2023-01-12T13:37:58.094Z,3.65
2023-01-12T13:40:31.686Z,8.73
2023-01-12T13:43:19.593Z,5.05
2023-01-12T13:45:56.562Z,3.20
2023-01-12T13:48:24.174Z,5.22
2023-01-12T13:50:52.250Z,6.82
2023-01-12T13:53:28.612Z,8.68
2023-01-12T13:55:56.444Z,4.75
2023-01-12T13:58:23.094Z,10.18
2023-01-12T14:01:01.711Z,5.75
2023-01-12T14:03:40.354Z,6.63
2023-01-12T14:06:12.947Z,8.82
2023-01-12T14:08:52.382Z,8.10
2023-01-12T14:11:35.893Z,7.45
2023-01-12T14:14:30.942Z,4.03
2023-01-12T14:17:16.145Z,3.70
2023-01-12T14:19:49.256Z,6.80
2023-01-12T14:22:19.468Z,6.47
2023-01-12T14:24:46.078Z,2.47
2023-01-12T14:27:23.164Z,6.85
2023-01-12T14:29:50.262Z,5.25
2023-01-12T14:32:18.532Z,5.60
2023-01-12T14:34:53.039Z,7.03
2023-01-12T14:37:32.703Z,3.08
2023-01-12T14:39:59.402Z,4.13
2023-01-12T14:42:44.731Z,3.42
2023-01-12T14:45:43.823Z,3.07
2023-01-12T14:48:27.225Z,6.90
2023-01-12T14:51:00.984Z,4.57
2023-01-12T14:53:34.757Z,0.40
2023-01-12T14:56:36.764Z,3.17
2023-01-12T14:59:07.296Z,2.00
2023-01-12T15:01:35.833Z,3.05
2023-01-12T15:04:04.578Z,2.50
2023-01-12T15:06:32.763Z,3.75
2023-01-12T15:09:03.170Z,4.78
2023-01-12T15:11:36.193Z,2.70
2023-01-12T15:14:03.749Z,2.00
2023-01-12T15:16:48.735Z,3.25
2023-01-12T15:19:33.519Z,1.92
2023-01-12T15:22:18.542Z,2.25
2023-01-12T15:25:03.753Z,4.05
2023-01-12T15:27:30.210Z,1.33
2023-01-12T15:29:56.789Z,1.20
2023-01-12T15:32:45.486Z,2.15
2023-01-12T15:35:14.498Z,6.35
2023-01-12T15:37:41.250Z,3.70
2023-01-12T15:40:09.067Z,1.33
2023-01-12T15:42:38.292Z,2.58
2023-01-12T15:45:14.695Z,1.52
2023-01-12T15:47:41.150Z,2.80
2023-01-12T15:50:10.021Z,2.58
2023-01-12T15:52:36.899Z,3.40
2023-01-12T15:55:03.428Z,3.17
2023-01-12T15:57:30.021Z,3.28
2023-01-12T15:59:56.789Z,2.45
2023-01-12T16:02:36.320Z,5.13
2023-01-12T16:05:03.947Z,4.20
2023-01-12T16:07:30.366Z,3.53
2023-01-12T16:09:57.734Z,5.18
2023-01-12T16:12:24.705Z,3.58
2023-01-12T16:14:51.316Z,3.35
2023-01-12T16:17:17.916Z,3.83
2023-01-12T16:19:44.349Z,4.10
2023-01-12T16:22:22.963Z,5.43
2023-01-12T16:24:50.357Z,8.68
2023-01-12T16:27:17.683Z,7.78
2023-01-12T16:29:44.552Z,7.18
2023-01-12T16:32:11.160Z,5.28
2023-01-12T16:34:37.711Z,5.40
2023-01-12T16:37:04.471Z,5.50
2023-01-12T16:39:31.353Z,6.45
2023-01-12T16:42:03.645Z,7.10
2023-01-12T16:44:37.416Z,10.48
2023-01-12T16:47:14.743Z,9.60
2023-01-12T16:49:41.649Z,10.05
2023-01-12T16:52:08.912Z,10.13
2023-01-12T16:54:41.622Z,5.93
2023-01-12T16:57:12.050Z,10.38
2023-01-12T16:59:38.917Z,9.50
2023-01-12T17:02:08.120Z,10.35
2023-01-12T17:04:35.860Z,7.30
2023-01-12T17:07:03.148Z,11.23
2023-01-12T17:09:29.639Z,8.00
2023-01-12T17:11:56.201Z,6.65
2023-01-12T17:14:22.988Z,10.52
2023-01-12T17:16:54.454Z,11.85
2023-01-12T17:19:21.567Z,7.53
2023-01-12T17:21:49.850Z,9.48
2023-01-12T17:24:18.610Z,12.88
2023-01-12T17:26:45.766Z,13.20
2023-01-12T17:29:12.541Z,13.50
2023-01-12T17:31:39.646Z,12.35
2023-01-12T17:34:07.017Z,11.18
2023-01-12T17:36:33.502Z,8.85
2023-01-12T17:39:00.835Z,9.65
2023-01-12T17:41:45.944Z,6.68
2023-01-12T17:44:12.356Z,8.40
2023-01-12T17:46:38.909Z,7.10
2023-01-12T17:49:06.417Z,9.43
2023-01-12T17:51:33.265Z,12.45
2023-01-12T17:54:00.610Z,14.45
2023-01-12T17:56:28.289Z,12.35
2023-01-12T17:58:54.862Z,10.82
2023-01-12T18:01:22.240Z,12.02
2023-01-12T18:03:48.755Z,8.85
2023-01-12T18:06:25.928Z,9.73
2023-01-12T18:08:53.225Z,10.95
2023-01-12T18:11:19.754Z,12.45
2023-01-12T18:13:46.491Z,8.48
2023-01-12T18:16:14.772Z,11.27
2023-01-12T18:18:42.387Z,11.65
2023-01-12T18:21:09.731Z,11.02
2023-01-12T18:23:38.783Z,8.57
2023-01-12T18:26:06.210Z,13.05
2023-01-12T18:28:32.621Z,12.77
2023-01-12T18:31:25.449Z,10.63
2023-01-12T18:33:55.069Z,10.13
2023-01-12T18:36:22.756Z,9.60
2023-01-12T18:38:50.764Z,9.38
2023-01-12T18:41:36.372Z,5.68
2023-01-12T18:44:06.397Z,12.70
2023-01-12T18:46:52.511Z,8.18
2023-01-12T18:49:22.668Z,12.10
2023-01-12T18:52:07.953Z,7.13
2023-01-12T18:54:41.943Z,6.63
2023-01-12T18:57:08.619Z,9.23
2023-01-12T18:59:35.174Z,7.18
2023-01-12T19:02:01.672Z,9.02
2023-01-12T19:04:57.075Z,8.38
2023-01-12T19:07:47.797Z,8.55
2023-01-12T19:10:14.267Z,4.82
2023-01-12T19:12:45.687Z,8.32
2023-01-12T19:15:31.685Z,10.35
2023-01-12T19:17:58.275Z,8.95
2023-01-12T19:20:28.817Z,10.43
2023-01-12T19:23:13.870Z,7.38
2023-01-12T19:25:59.111Z,13.13
2023-01-12T19:28:38.353Z,9.27
2023-01-12T19:31:06.389Z,7.20
2023-01-12T19:33:33.014Z,5.32
2023-01-12T19:36:04.393Z,8.93
2023-01-12T19:38:30.964Z,9.88
2023-01-12T19:41:09.867Z,5.93
2023-01-12T19:43:38.112Z,7.47
2023-01-12T19:46:04.830Z,6.45
2023-01-12T19:48:32.649Z,7.82
2023-01-12T19:51:04.732Z,5.35
2023-01-12T19:53:31.224Z,4.28
2023-01-12T19:55:57.660Z,8.00
2023-01-12T19:58:25.053Z,6.85
2023-01-12T20:00:51.583Z,5.97
2023-01-12T20:03:19.644Z,3.50
2023-01-12T20:05:47.529Z,7.30
2023-01-12T20:08:14.340Z,6.70
2023-01-12T20:10:41.062Z,7.93
2023-01-12T20:13:07.888Z,8.13
2023-01-12T20:15:34.337Z,4.85
2023-01-12T20:18:02.014Z,11.98
2023-01-12T20:20:28.951Z,7.72
2023-01-12T20:22:55.660Z,5.22
2023-01-12T20:25:22.435Z,9.65
2023-01-12T20:27:49.708Z,11.50
2023-01-12T20:30:25.332Z,7.30
2023-01-12T20:32:59.192Z,16.70
2023-01-12T20:35:25.974Z,18.67
2023-01-12T20:37:52.673Z,20.25
2023-01-12T20:40:19.699Z,18.38
2023-01-12T20:42:46.335Z,14.07
2023-01-12T20:45:14.017Z,12.27
2023-01-12T20:47:41.189Z,11.23
2023-01-12T20:50:08.444Z,12.52
2023-01-12T20:52:35.421Z,14.73
2023-01-12T20:55:02.137Z,19.35
2023-01-12T20:57:28.897Z,16.33
2023-01-12T20:59:55.702Z,14.45
2023-01-12T21:02:24.302Z,18.83
2023-01-12T21:04:50.818Z,13.65
2023-01-12T21:07:17.567Z,19.77
2023-01-12T21:09:43.949Z,20.38
2023-01-12T21:12:10.915Z,14.68
2023-01-12T21:14:37.369Z,24.55
2023-01-12T21:17:05.273Z,21.20
2023-01-12T21:19:32.246Z,20.85
2023-01-12T21:21:58.665Z,18.08
2023-01-12T21:24:25.577Z,14.82
2023-01-12T21:26:52.154Z,14.88
2023-01-12T21:29:18.546Z,15.43
2023-01-12T21:31:45.079Z,15.13
2023-01-12T21:34:11.663Z,18.38
2023-01-12T21:36:38.265Z,18.20
2023-01-12T21:39:04.625Z,16.88
2023-01-12T21:41:50.990Z,12.52
2023-01-12T21:44:17.331Z,18.40
2023-01-12T21:46:43.666Z,17.75
2023-01-12T21:49:10.070Z,14.93
2023-01-12T21:51:36.424Z,18.17
2023-01-12T21:54:02.783Z,16.35
2023-01-12T21:56:29.084Z,14.65
2023-01-12T21:58:55.411Z,17.65
2023-01-12T22:01:21.944Z,14.85
2023-01-12T22:03:48.541Z,20.92
2023-01-12T22:06:14.913Z,12.32
2023-01-12T22:08:41.981Z,17.23
2023-01-12T22:11:09.647Z,14.13
2023-01-12T22:13:37.041Z,16.23
2023-01-12T22:16:04.926Z,18.85
2023-01-12T22:18:31.572Z,20.15
2023-01-12T22:21:02.137Z,16.92
2023-01-12T22:23:28.873Z,17.55
2023-01-12T22:25:55.346Z,23.30
2023-01-12T22:28:21.668Z,20.33
2023-01-12T22:30:48.065Z,21.83
2023-01-12T22:33:15.861Z,22.17
2023-01-12T22:35:42.300Z,16.85
2023-01-12T22:38:08.731Z,26.35
2023-01-12T22:40:35.062Z,11.82
2023-01-12T22:43:38.277Z,24.58
2023-01-12T22:46:25.018Z,27.58
2023-01-12T22:48:52.415Z,24.33
2023-01-12T22:51:20.835Z,22.48
2023-01-12T22:53:47.409Z,26.65
2023-01-12T22:56:13.852Z,27.80
2023-01-12T22:58:40.457Z,29.52
2023-01-12T23:01:08.316Z,34.45
2023-01-12T23:03:35.407Z,28.05
2023-01-12T23:06:02.535Z,27.45
2023-01-12T23:08:29.004Z,31.45
2023-01-12T23:11:06.224Z,23.33
2023-01-12T23:13:32.550Z,23.55
2023-01-12T23:16:01.914Z,20.60
2023-01-12T23:18:29.366Z,24.95
2023-01-12T23:21:03.125Z,28.27
2023-01-12T23:23:30.572Z,26.80
2023-01-12T23:26:03.901Z,35.08
2023-01-12T23:28:30.487Z,28.95
2023-01-12T23:31:04.318Z,25.90
2023-01-12T23:33:30.797Z,21.25
2023-01-12T23:36:01.177Z,20.38
2023-01-12T23:38:27.513Z,31.70
2023-01-12T23:40:53.796Z,35.60
2023-01-12T23:43:20.850Z,27.77
2023-01-12T23:45:47.180Z,32.38
2023-01-12T23:48:13.583Z,17.58
2023-01-12T23:50:40.135Z,29.35
2023-01-12T23:53:06.510Z,23.85
2023-01-12T23:55:32.852Z,20.73
2023-01-12T23:57:59.146Z,28.40
